sensor_id;sensor_type;location;lat;lon;timestamp;P1;durP1;ratioP1;P2;durP2;ratioP2
24891;SDS011;12954;50.688;10.908;2023-03-29T00:01:03;5.70;;;1.80;;
24891;SDS011;12954;50.688;10.908;2023-03-29T00:03:32;5.28;;;1.45;;
24891;SDS011;12954;50.688;10.908;2023-03-29T00:06:02;3.45;;;1.65;;
24891;SDS011;12954;50.688;10.908;2023-03-29T00:08:32;4.18;;;1.20;;
24891;SDS011;12954;50.688;10.908;2023-03-29T00:11:01;3.85;;;1.40;;
24891;SDS011;12954;50.688;10.908;2023-03-29T00:13:29;2.88;;;1.40;;
24891;SDS011;12954;50.688;10.908;2023-03-29T00:15:58;4.20;;;1.33;;
24891;SDS011;12954;50.688;10.908;2023-03-29T00:18:26;4.13;;;1.60;;
24891;SDS011;12954;50.688;10.908;2023-03-29T00:20:54;5.78;;;1.70;;
24891;SDS011;12954;50.688;10.908;2023-03-29T00:23:24;6.90;;;1.52;;
24891;SDS011;12954;50.688;10.908;2023-03-29T00:25:53;4.65;;;1.48;;
24891;SDS011;12954;50.688;10.908;2023-03-29T00:28:22;4.78;;;1.80;;
24891;SDS011;12954;50.688;10.908;2023-03-29T00:30:50;6.32;;;2.03;;
24891;SDS011;12954;50.688;10.908;2023-03-29T00:33:19;4.28;;;1.90;;
24891;SDS011;12954;50.688;10.908;2023-03-29T00:35:48;5.22;;;1.65;;
24891;SDS011;12954;50.688;10.908;2023-03-29T00:38:19;4.72;;;1.73;;
24891;SDS011;12954;50.688;10.908;2023-03-29T00:40:49;5.63;;;1.83;;
24891;SDS011;12954;50.688;10.908;2023-03-29T00:43:18;6.82;;;2.22;;
24891;SDS011;12954;50.688;10.908;2023-03-29T00:45:46;5.28;;;1.98;;
24891;SDS011;12954;50.688;10.908;2023-03-29T00:48:15;5.65;;;1.80;;
24891;SDS011;12954;50.688;10.908;2023-03-29T00:50:46;4.57;;;1.60;;
24891;SDS011;12954;50.688;10.908;2023-03-29T00:53:18;5.00;;;1.52;;
24891;SDS011;12954;50.688;10.908;2023-03-29T00:55:54;4.80;;;2.30;;
24891;SDS011;12954;50.688;10.908;2023-03-29T00:58:27;5.53;;;1.90;;
24891;SDS011;12954;50.688;10.908;2023-03-29T01:01:02;6.65;;;1.80;;
24891;SDS011;12954;50.688;10.908;2023-03-29T01:03:34;4.72;;;1.95;;
24891;SDS011;12954;50.688;10.908;2023-03-29T01:06:12;5.53;;;2.05;;
24891;SDS011;12954;50.688;10.908;2023-03-29T01:08:43;3.05;;;1.50;;
24891;SDS011;12954;50.688;10.908;2023-03-29T01:11:19;6.35;;;1.90;;
24891;SDS011;12954;50.688;10.908;2023-03-29T01:13:53;6.97;;;1.92;;
24891;SDS011;12954;50.688;10.908;2023-03-29T01:16:25;4.32;;;1.60;;
24891;SDS011;12954;50.688;10.908;2023-03-29T01:18:55;4.95;;;2.13;;
24891;SDS011;12954;50.688;10.908;2023-03-29T01:21:26;4.93;;;1.85;;
24891;SDS011;12954;50.688;10.908;2023-03-29T01:24:06;6.68;;;1.90;;
24891;SDS011;12954;50.688;10.908;2023-03-29T01:27:11;7.93;;;1.80;;
24891;SDS011;12954;50.688;10.908;2023-03-29T01:29:46;6.05;;;2.20;;
24891;SDS011;12954;50.688;10.908;2023-03-29T01:32:18;6.73;;;2.13;;
24891;SDS011;12954;50.688;10.908;2023-03-29T01:34:51;5.47;;;2.20;;
24891;SDS011;12954;50.688;10.908;2023-03-29T01:39:54;3.03;;;1.63;;
24891;SDS011;12954;50.688;10.908;2023-03-29T01:42:28;4.30;;;2.35;;
24891;SDS011;12954;50.688;10.908;2023-03-29T01:45:07;6.03;;;2.22;;
24891;SDS011;12954;50.688;10.908;2023-03-29T01:47:46;3.67;;;2.20;;
24891;SDS011;12954;50.688;10.908;2023-03-29T01:50:24;6.43;;;2.25;;
24891;SDS011;12954;50.688;10.908;2023-03-29T01:53:03;3.17;;;2.25;;
24891;SDS011;12954;50.688;10.908;2023-03-29T01:55:37;3.65;;;2.13;;
24891;SDS011;12954;50.688;10.908;2023-03-29T01:58:10;5.43;;;2.45;;
24891;SDS011;12954;50.688;10.908;2023-03-29T02:00:43;6.45;;;2.65;;
24891;SDS011;12954;50.688;10.908;2023-03-29T02:03:13;5.38;;;2.55;;
24891;SDS011;12954;50.688;10.908;2023-03-29T02:05:43;5.55;;;2.90;;
24891;SDS011;12954;50.688;10.908;2023-03-29T02:08:12;3.97;;;2.55;;
24891;SDS011;12954;50.688;10.908;2023-03-29T02:10:43;6.45;;;2.80;;
24891;SDS011;12954;50.688;10.908;2023-03-29T02:13:12;6.43;;;2.80;;
24891;SDS011;12954;50.688;10.908;2023-03-29T02:15:44;5.63;;;3.33;;
24891;SDS011;12954;50.688;10.908;2023-03-29T02:18:13;4.47;;;3.00;;
24891;SDS011;12954;50.688;10.908;2023-03-29T02:20:44;4.85;;;2.80;;
24891;SDS011;12954;50.688;10.908;2023-03-29T02:23:16;4.70;;;2.63;;
24891;SDS011;12954;50.688;10.908;2023-03-29T02:25:49;6.93;;;3.10;;
24891;SDS011;12954;50.688;10.908;2023-03-29T02:28:20;6.13;;;3.08;;
24891;SDS011;12954;50.688;10.908;2023-03-29T02:30:54;8.57;;;3.30;;
24891;SDS011;12954;50.688;10.908;2023-03-29T02:33:29;5.47;;;3.20;;
24891;SDS011;12954;50.688;10.908;2023-03-29T02:36:06;7.85;;;3.55;;
24891;SDS011;12954;50.688;10.908;2023-03-29T02:41:07;8.65;;;3.40;;
24891;SDS011;12954;50.688;10.908;2023-03-29T02:43:37;8.52;;;4.10;;
24891;SDS011;12954;50.688;10.908;2023-03-29T02:46:10;8.00;;;4.47;;
24891;SDS011;12954;50.688;10.908;2023-03-29T02:48:40;7.53;;;4.07;;
24891;SDS011;12954;50.688;10.908;2023-03-29T02:51:13;7.70;;;3.85;;
24891;SDS011;12954;50.688;10.908;2023-03-29T02:53:47;6.28;;;4.63;;
24891;SDS011;12954;50.688;10.908;2023-03-29T02:56:19;7.25;;;4.47;;
24891;SDS011;12954;50.688;10.908;2023-03-29T02:58:47;9.15;;;4.72;;
24891;SDS011;12954;50.688;10.908;2023-03-29T03:01:17;6.75;;;5.18;;
24891;SDS011;12954;50.688;10.908;2023-03-29T03:03:48;8.30;;;5.30;;
24891;SDS011;12954;50.688;10.908;2023-03-29T03:06:17;9.07;;;5.00;;
24891;SDS011;12954;50.688;10.908;2023-03-29T03:08:46;7.47;;;4.65;;
24891;SDS011;12954;50.688;10.908;2023-03-29T03:11:15;8.38;;;5.15;;
24891;SDS011;12954;50.688;10.908;2023-03-29T03:13:43;8.77;;;5.00;;
24891;SDS011;12954;50.688;10.908;2023-03-29T03:16:11;9.68;;;5.13;;
24891;SDS011;12954;50.688;10.908;2023-03-29T03:18:41;7.20;;;5.65;;
24891;SDS011;12954;50.688;10.908;2023-03-29T03:21:11;10.63;;;6.05;;
24891;SDS011;12954;50.688;10.908;2023-03-29T03:23:39;7.03;;;5.47;;
24891;SDS011;12954;50.688;10.908;2023-03-29T03:26:09;9.52;;;5.78;;
24891;SDS011;12954;50.688;10.908;2023-03-29T03:28:37;7.65;;;5.82;;
24891;SDS011;12954;50.688;10.908;2023-03-29T03:31:06;7.95;;;5.63;;
24891;SDS011;12954;50.688;10.908;2023-03-29T03:33:35;8.30;;;5.10;;
24891;SDS011;12954;50.688;10.908;2023-03-29T03:36:06;6.43;;;4.97;;
24891;SDS011;12954;50.688;10.908;2023-03-29T03:38:36;6.63;;;4.65;;
24891;SDS011;12954;50.688;10.908;2023-03-29T03:41:05;7.07;;;5.03;;
24891;SDS011;12954;50.688;10.908;2023-03-29T03:43:34;5.88;;;4.50;;
24891;SDS011;12954;50.688;10.908;2023-03-29T03:46:03;5.28;;;4.22;;
24891;SDS011;12954;50.688;10.908;2023-03-29T03:48:31;6.05;;;4.38;;
24891;SDS011;12954;50.688;10.908;2023-03-29T03:51:00;4.53;;;3.88;;
24891;SDS011;12954;50.688;10.908;2023-03-29T03:53:30;5.63;;;4.07;;
24891;SDS011;12954;50.688;10.908;2023-03-29T03:55:59;4.45;;;3.53;;
24891;SDS011;12954;50.688;10.908;2023-03-29T03:58:34;5.25;;;4.05;;
24891;SDS011;12954;50.688;10.908;2023-03-29T04:01:03;7.50;;;4.05;;
24891;SDS011;12954;50.688;10.908;2023-03-29T04:03:33;5.97;;;4.03;;
24891;SDS011;12954;50.688;10.908;2023-03-29T04:06:03;5.35;;;3.85;;
24891;SDS011;12954;50.688;10.908;2023-03-29T04:08:34;6.75;;;4.03;;
24891;SDS011;12954;50.688;10.908;2023-03-29T04:11:02;5.68;;;4.38;;
24891;SDS011;12954;50.688;10.908;2023-03-29T04:13:33;7.88;;;3.83;;
24891;SDS011;12954;50.688;10.908;2023-03-29T04:16:01;7.18;;;4.40;;
24891;SDS011;12954;50.688;10.908;2023-03-29T04:18:30;6.43;;;4.47;;
24891;SDS011;12954;50.688;10.908;2023-03-29T04:20:58;7.65;;;4.10;;
24891;SDS011;12954;50.688;10.908;2023-03-29T04:23:28;6.68;;;5.15;;
24891;SDS011;12954;50.688;10.908;2023-03-29T04:25:58;7.47;;;4.47;;
24891;SDS011;12954;50.688;10.908;2023-03-29T04:28:26;5.80;;;5.20;;
24891;SDS011;12954;50.688;10.908;2023-03-29T04:30:54;8.00;;;6.20;;
24891;SDS011;12954;50.688;10.908;2023-03-29T04:33:23;8.43;;;5.30;;
24891;SDS011;12954;50.688;10.908;2023-03-29T04:35:52;6.95;;;5.15;;
24891;SDS011;12954;50.688;10.908;2023-03-29T04:38:20;6.57;;;4.72;;
24891;SDS011;12954;50.688;10.908;2023-03-29T04:40:49;8.00;;;5.93;;
24891;SDS011;12954;50.688;10.908;2023-03-29T04:43:19;8.45;;;5.13;;
24891;SDS011;12954;50.688;10.908;2023-03-29T04:45:48;8.77;;;5.18;;
24891;SDS011;12954;50.688;10.908;2023-03-29T04:48:16;9.68;;;5.43;;
24891;SDS011;12954;50.688;10.908;2023-03-29T04:50:45;9.65;;;5.38;;
24891;SDS011;12954;50.688;10.908;2023-03-29T04:53:13;7.88;;;5.80;;
24891;SDS011;12954;50.688;10.908;2023-03-29T04:55:42;6.90;;;5.60;;
24891;SDS011;12954;50.688;10.908;2023-03-29T04:58:10;7.80;;;5.80;;
24891;SDS011;12954;50.688;10.908;2023-03-29T05:00:40;8.32;;;5.65;;
24891;SDS011;12954;50.688;10.908;2023-03-29T05:03:08;8.90;;;5.93;;
24891;SDS011;12954;50.688;10.908;2023-03-29T05:05:42;9.35;;;5.63;;
24891;SDS011;12954;50.688;10.908;2023-03-29T05:08:11;9.57;;;6.50;;
24891;SDS011;12954;50.688;10.908;2023-03-29T05:10:40;8.15;;;6.38;;
24891;SDS011;12954;50.688;10.908;2023-03-29T05:13:09;9.70;;;6.53;;
24891;SDS011;12954;50.688;10.908;2023-03-29T05:15:37;7.07;;;5.95;;
24891;SDS011;12954;50.688;10.908;2023-03-29T05:18:08;8.43;;;6.10;;
24891;SDS011;12954;50.688;10.908;2023-03-29T05:20:36;8.25;;;5.75;;
24891;SDS011;12954;50.688;10.908;2023-03-29T05:23:05;8.43;;;5.80;;
24891;SDS011;12954;50.688;10.908;2023-03-29T05:25:34;9.48;;;6.20;;
24891;SDS011;12954;50.688;10.908;2023-03-29T05:28:02;7.10;;;5.53;;
24891;SDS011;12954;50.688;10.908;2023-03-29T05:30:31;8.10;;;5.22;;
24891;SDS011;12954;50.688;10.908;2023-03-29T05:33:00;7.45;;;5.82;;
24891;SDS011;12954;50.688;10.908;2023-03-29T05:35:32;6.60;;;5.13;;
24891;SDS011;12954;50.688;10.908;2023-03-29T05:38:01;8.85;;;5.65;;
24891;SDS011;12954;50.688;10.908;2023-03-29T05:40:30;10.13;;;5.93;;
24891;SDS011;12954;50.688;10.908;2023-03-29T05:42:59;9.75;;;5.85;;
24891;SDS011;12954;50.688;10.908;2023-03-29T05:45:28;8.82;;;5.35;;
24891;SDS011;12954;50.688;10.908;2023-03-29T05:47:58;6.45;;;4.57;;
24891;SDS011;12954;50.688;10.908;2023-03-29T05:50:26;8.98;;;5.10;;
24891;SDS011;12954;50.688;10.908;2023-03-29T05:52:57;8.35;;;4.63;;
24891;SDS011;12954;50.688;10.908;2023-03-29T05:55:25;6.13;;;4.55;;
24891;SDS011;12954;50.688;10.908;2023-03-29T05:57:53;7.97;;;4.90;;
24891;SDS011;12954;50.688;10.908;2023-03-29T06:00:22;7.85;;;5.40;;
24891;SDS011;12954;50.688;10.908;2023-03-29T06:02:51;6.72;;;4.70;;
24891;SDS011;12954;50.688;10.908;2023-03-29T06:05:32;5.72;;;4.07;;
24891;SDS011;12954;50.688;10.908;2023-03-29T06:08:02;7.72;;;5.15;;
24891;SDS011;12954;50.688;10.908;2023-03-29T06:10:30;7.18;;;4.32;;
24891;SDS011;12954;50.688;10.908;2023-03-29T06:13:01;6.75;;;4.78;;
24891;SDS011;12954;50.688;10.908;2023-03-29T06:15:31;6.78;;;4.57;;
24891;SDS011;12954;50.688;10.908;2023-03-29T06:18:01;6.03;;;4.10;;
24891;SDS011;12954;50.688;10.908;2023-03-29T06:20:30;7.70;;;4.60;;
24891;SDS011;12954;50.688;10.908;2023-03-29T06:22:58;7.05;;;4.47;;
24891;SDS011;12954;50.688;10.908;2023-03-29T06:25:28;7.93;;;4.72;;
24891;SDS011;12954;50.688;10.908;2023-03-29T06:27:57;7.72;;;4.95;;
24891;SDS011;12954;50.688;10.908;2023-03-29T06:30:25;5.28;;;4.50;;
24891;SDS011;12954;50.688;10.908;2023-03-29T06:32:54;6.00;;;4.30;;
24891;SDS011;12954;50.688;10.908;2023-03-29T06:35:23;7.07;;;3.85;;
24891;SDS011;12954;50.688;10.908;2023-03-29T06:37:51;6.13;;;3.80;;
24891;SDS011;12954;50.688;10.908;2023-03-29T06:40:20;5.85;;;4.10;;
24891;SDS011;12954;50.688;10.908;2023-03-29T06:42:50;6.28;;;3.95;;
24891;SDS011;12954;50.688;10.908;2023-03-29T06:45:23;5.22;;;3.60;;
24891;SDS011;12954;50.688;10.908;2023-03-29T06:47:54;5.07;;;3.58;;
24891;SDS011;12954;50.688;10.908;2023-03-29T06:50:23;4.25;;;3.15;;
24891;SDS011;12954;50.688;10.908;2023-03-29T06:52:51;4.53;;;3.22;;
24891;SDS011;12954;50.688;10.908;2023-03-29T06:55:20;9.20;;;3.92;;
24891;SDS011;12954;50.688;10.908;2023-03-29T06:57:49;5.38;;;3.47;;
24891;SDS011;12954;50.688;10.908;2023-03-29T07:00:20;8.27;;;3.72;;
24891;SDS011;12954;50.688;10.908;2023-03-29T07:02:54;6.28;;;3.50;;
24891;SDS011;12954;50.688;10.908;2023-03-29T07:05:24;5.50;;;3.60;;
24891;SDS011;12954;50.688;10.908;2023-03-29T07:07:53;5.10;;;4.05;;
24891;SDS011;12954;50.688;10.908;2023-03-29T07:10:22;5.35;;;3.67;;
24891;SDS011;12954;50.688;10.908;2023-03-29T07:12:55;6.85;;;4.25;;
24891;SDS011;12954;50.688;10.908;2023-03-29T07:15:23;4.15;;;3.28;;
24891;SDS011;12954;50.688;10.908;2023-03-29T07:17:53;6.28;;;3.40;;
24891;SDS011;12954;50.688;10.908;2023-03-29T07:20:21;4.72;;;2.95;;
24891;SDS011;12954;50.688;10.908;2023-03-29T07:22:50;4.82;;;3.63;;
24891;SDS011;12954;50.688;10.908;2023-03-29T07:25:19;6.47;;;3.20;;
24891;SDS011;12954;50.688;10.908;2023-03-29T07:27:49;4.40;;;3.17;;
24891;SDS011;12954;50.688;10.908;2023-03-29T07:30:20;5.45;;;3.25;;
24891;SDS011;12954;50.688;10.908;2023-03-29T07:32:50;4.78;;;3.20;;
24891;SDS011;12954;50.688;10.908;2023-03-29T07:35:19;3.80;;;2.67;;
24891;SDS011;12954;50.688;10.908;2023-03-29T07:37:48;4.78;;;3.13;;
24891;SDS011;12954;50.688;10.908;2023-03-29T07:40:17;3.63;;;2.60;;
24891;SDS011;12954;50.688;10.908;2023-03-29T07:42:49;4.72;;;3.40;;
24891;SDS011;12954;50.688;10.908;2023-03-29T07:45:21;4.50;;;2.88;;
24891;SDS011;12954;50.688;10.908;2023-03-29T07:47:54;5.97;;;3.38;;
24891;SDS011;12954;50.688;10.908;2023-03-29T07:50:24;4.63;;;2.95;;
24891;SDS011;12954;50.688;10.908;2023-03-29T07:52:53;5.93;;;2.75;;
24891;SDS011;12954;50.688;10.908;2023-03-29T07:55:22;6.45;;;2.63;;
24891;SDS011;12954;50.688;10.908;2023-03-29T07:57:50;3.90;;;2.95;;
24891;SDS011;12954;50.688;10.908;2023-03-29T08:00:21;4.13;;;3.10;;
24891;SDS011;12954;50.688;10.908;2023-03-29T08:02:50;3.78;;;2.75;;
24891;SDS011;12954;50.688;10.908;2023-03-29T08:05:21;4.70;;;3.35;;
24891;SDS011;12954;50.688;10.908;2023-03-29T08:08:05;5.00;;;2.70;;
24891;SDS011;12954;50.688;10.908;2023-03-29T08:10:35;4.30;;;3.10;;
24891;SDS011;12954;50.688;10.908;2023-03-29T08:13:07;6.40;;;3.03;;
24891;SDS011;12954;50.688;10.908;2023-03-29T08:15:38;5.30;;;3.08;;
24891;SDS011;12954;50.688;10.908;2023-03-29T08:18:11;5.78;;;3.28;;
24891;SDS011;12954;50.688;10.908;2023-03-29T08:20:40;5.85;;;3.30;;
24891;SDS011;12954;50.688;10.908;2023-03-29T08:23:08;7.30;;;3.38;;
24891;SDS011;12954;50.688;10.908;2023-03-29T08:25:37;3.55;;;2.85;;
24891;SDS011;12954;50.688;10.908;2023-03-29T08:28:05;4.60;;;3.38;;
24891;SDS011;12954;50.688;10.908;2023-03-29T08:30:34;4.40;;;3.17;;
24891;SDS011;12954;50.688;10.908;2023-03-29T08:33:04;6.13;;;3.50;;
24891;SDS011;12954;50.688;10.908;2023-03-29T08:35:33;4.38;;;3.03;;
24891;SDS011;12954;50.688;10.908;2023-03-29T08:38:01;4.80;;;3.47;;
24891;SDS011;12954;50.688;10.908;2023-03-29T08:40:29;4.90;;;3.08;;
24891;SDS011;12954;50.688;10.908;2023-03-29T08:43:05;3.75;;;2.65;;
24891;SDS011;12954;50.688;10.908;2023-03-29T08:45:45;5.70;;;2.60;;
24891;SDS011;12954;50.688;10.908;2023-03-29T08:48:27;8.10;;;3.28;;
24891;SDS011;12954;50.688;10.908;2023-03-29T08:50:59;5.30;;;3.00;;
24891;SDS011;12954;50.688;10.908;2023-03-29T08:53:34;6.03;;;2.92;;
24891;SDS011;12954;50.688;10.908;2023-03-29T08:56:10;7.55;;;3.33;;
24891;SDS011;12954;50.688;10.908;2023-03-29T08:58:40;4.50;;;3.33;;
24891;SDS011;12954;50.688;10.908;2023-03-29T09:01:11;6.18;;;2.95;;
24891;SDS011;12954;50.688;10.908;2023-03-29T09:03:42;5.93;;;3.08;;
24891;SDS011;12954;50.688;10.908;2023-03-29T09:06:14;10.20;;;3.40;;
24891;SDS011;12954;50.688;10.908;2023-03-29T09:08:48;5.55;;;2.58;;
24891;SDS011;12954;50.688;10.908;2023-03-29T09:11:27;7.20;;;3.13;;
24891;SDS011;12954;50.688;10.908;2023-03-29T09:14:14;3.90;;;2.70;;
24891;SDS011;12954;50.688;10.908;2023-03-29T09:16:58;8.65;;;3.40;;
24891;SDS011;12954;50.688;10.908;2023-03-29T09:19:36;5.03;;;2.90;;
24891;SDS011;12954;50.688;10.908;2023-03-29T09:22:11;7.60;;;2.90;;
24891;SDS011;12954;50.688;10.908;2023-03-29T09:24:53;4.03;;;2.72;;
24891;SDS011;12954;50.688;10.908;2023-03-29T09:27:31;4.72;;;2.50;;
24891;SDS011;12954;50.688;10.908;2023-03-29T09:30:04;4.45;;;2.28;;
24891;SDS011;12954;50.688;10.908;2023-03-29T09:32:43;4.38;;;2.40;;
24891;SDS011;12954;50.688;10.908;2023-03-29T09:35:20;4.60;;;2.50;;
24891;SDS011;12954;50.688;10.908;2023-03-29T09:37:51;5.25;;;2.50;;
24891;SDS011;12954;50.688;10.908;2023-03-29T09:40:21;3.72;;;2.60;;
24891;SDS011;12954;50.688;10.908;2023-03-29T09:42:53;6.22;;;2.83;;
24891;SDS011;12954;50.688;10.908;2023-03-29T09:45:23;5.20;;;2.50;;
24891;SDS011;12954;50.688;10.908;2023-03-29T09:47:53;3.50;;;2.38;;
24891;SDS011;12954;50.688;10.908;2023-03-29T09:50:27;6.25;;;2.33;;
24891;SDS011;12954;50.688;10.908;2023-03-29T09:53:01;5.07;;;2.40;;
24891;SDS011;12954;50.688;10.908;2023-03-29T09:55:31;2.88;;;2.25;;
24891;SDS011;12954;50.688;10.908;2023-03-29T09:58:09;6.82;;;3.60;;
24891;SDS011;12954;50.688;10.908;2023-03-29T10:00:40;4.18;;;2.50;;
24891;SDS011;12954;50.688;10.908;2023-03-29T10:03:08;5.82;;;2.40;;
24891;SDS011;12954;50.688;10.908;2023-03-29T10:05:46;2.90;;;2.10;;
24891;SDS011;12954;50.688;10.908;2023-03-29T10:08:19;3.22;;;2.35;;
24891;SDS011;12954;50.688;10.908;2023-03-29T10:10:52;3.88;;;2.83;;
24891;SDS011;12954;50.688;10.908;2023-03-29T10:13:26;4.03;;;2.00;;
24891;SDS011;12954;50.688;10.908;2023-03-29T10:15:56;5.00;;;2.10;;
24891;SDS011;12954;50.688;10.908;2023-03-29T10:18:29;2.85;;;1.95;;
24891;SDS011;12954;50.688;10.908;2023-03-29T10:21:00;3.28;;;1.85;;
24891;SDS011;12954;50.688;10.908;2023-03-29T10:23:31;5.35;;;1.90;;
24891;SDS011;12954;50.688;10.908;2023-03-29T10:26:00;4.13;;;1.67;;
24891;SDS011;12954;50.688;10.908;2023-03-29T10:28:30;3.03;;;2.10;;
24891;SDS011;12954;50.688;10.908;2023-03-29T10:31:01;3.97;;;1.85;;
24891;SDS011;12954;50.688;10.908;2023-03-29T10:33:34;3.03;;;2.00;;
24891;SDS011;12954;50.688;10.908;2023-03-29T10:36:06;2.95;;;2.33;;
24891;SDS011;12954;50.688;10.908;2023-03-29T10:38:36;3.97;;;2.10;;
24891;SDS011;12954;50.688;10.908;2023-03-29T10:41:05;4.43;;;1.98;;
24891;SDS011;12954;50.688;10.908;2023-03-29T10:43:38;4.68;;;2.00;;
24891;SDS011;12954;50.688;10.908;2023-03-29T10:46:10;2.97;;;2.20;;
24891;SDS011;12954;50.688;10.908;2023-03-29T10:48:46;2.75;;;2.38;;
24891;SDS011;12954;50.688;10.908;2023-03-29T10:51:17;3.45;;;2.00;;
24891;SDS011;12954;50.688;10.908;2023-03-29T10:53:46;3.92;;;2.00;;
24891;SDS011;12954;50.688;10.908;2023-03-29T10:56:21;2.78;;;2.00;;
24891;SDS011;12954;50.688;10.908;2023-03-29T11:01:43;4.13;;;2.30;;
24891;SDS011;12954;50.688;10.908;2023-03-29T11:04:20;4.97;;;2.22;;
24891;SDS011;12954;50.688;10.908;2023-03-29T11:07:07;3.80;;;2.10;;
24891;SDS011;12954;50.688;10.908;2023-03-29T11:09:48;6.53;;;2.05;;
24891;SDS011;12954;50.688;10.908;2023-03-29T11:12:24;3.80;;;1.90;;
24891;SDS011;12954;50.688;10.908;2023-03-29T11:15:02;3.95;;;2.08;;
24891;SDS011;12954;50.688;10.908;2023-03-29T11:17:47;3.65;;;2.05;;
24891;SDS011;12954;50.688;10.908;2023-03-29T11:20:30;6.18;;;2.20;;
24891;SDS011;12954;50.688;10.908;2023-03-29T11:23:07;4.25;;;2.33;;
24891;SDS011;12954;50.688;10.908;2023-03-29T11:25:48;2.97;;;1.83;;
24891;SDS011;12954;50.688;10.908;2023-03-29T11:28:27;3.28;;;1.98;;
24891;SDS011;12954;50.688;10.908;2023-03-29T11:31:03;4.57;;;2.08;;
24891;SDS011;12954;50.688;10.908;2023-03-29T11:33:44;4.18;;;2.00;;
24891;SDS011;12954;50.688;10.908;2023-03-29T11:36:23;4.30;;;2.22;;
24891;SDS011;12954;50.688;10.908;2023-03-29T11:39:02;3.80;;;2.33;;
24891;SDS011;12954;50.688;10.908;2023-03-29T11:41:37;3.85;;;2.10;;
24891;SDS011;12954;50.688;10.908;2023-03-29T11:44:10;2.70;;;1.80;;
24891;SDS011;12954;50.688;10.908;2023-03-29T11:46:44;2.40;;;1.75;;
24891;SDS011;12954;50.688;10.908;2023-03-29T11:49:17;2.88;;;1.90;;
24891;SDS011;12954;50.688;10.908;2023-03-29T11:51:51;3.93;;;2.10;;
24891;SDS011;12954;50.688;10.908;2023-03-29T11:54:24;3.37;;;2.00;;
24891;SDS011;12954;50.688;10.908;2023-03-29T11:56:58;2.95;;;1.70;;
24891;SDS011;12954;50.688;10.908;2023-03-29T11:59:33;3.75;;;2.00;;
24891;SDS011;12954;50.688;10.908;2023-03-29T12:04:40;4.70;;;1.90;;
24891;SDS011;12954;50.688;10.908;2023-03-29T12:07:13;2.72;;;1.92;;
24891;SDS011;12954;50.688;10.908;2023-03-29T12:09:49;3.58;;;1.73;;
24891;SDS011;12954;50.688;10.908;2023-03-29T12:12:23;3.38;;;1.90;;
24891;SDS011;12954;50.688;10.908;2023-03-29T12:14:58;2.90;;;1.67;;
24891;SDS011;12954;50.688;10.908;2023-03-29T12:17:33;1.98;;;1.75;;
24891;SDS011;12954;50.688;10.908;2023-03-29T12:20:09;3.05;;;1.90;;
24891;SDS011;12954;50.688;10.908;2023-03-29T12:22:43;2.95;;;1.75;;
24891;SDS011;12954;50.688;10.908;2023-03-29T12:25:16;2.75;;;1.60;;
24891;SDS011;12954;50.688;10.908;2023-03-29T12:27:53;2.70;;;1.65;;
24891;SDS011;12954;50.688;10.908;2023-03-29T12:30:36;3.33;;;1.70;;
24891;SDS011;12954;50.688;10.908;2023-03-29T12:33:26;3.50;;;1.77;;
24891;SDS011;12954;50.688;10.908;2023-03-29T12:36:15;2.08;;;1.40;;
24891;SDS011;12954;50.688;10.908;2023-03-29T12:38:51;2.95;;;1.85;;
24891;SDS011;12954;50.688;10.908;2023-03-29T12:41:22;2.10;;;1.73;;
24891;SDS011;12954;50.688;10.908;2023-03-29T12:43:51;3.30;;;1.63;;
24891;SDS011;12954;50.688;10.908;2023-03-29T12:46:21;2.78;;;1.67;;
24891;SDS011;12954;50.688;10.908;2023-03-29T12:48:53;3.67;;;1.80;;
24891;SDS011;12954;50.688;10.908;2023-03-29T12:51:26;4.15;;;1.85;;
24891;SDS011;12954;50.688;10.908;2023-03-29T12:54:00;5.47;;;1.77;;
24891;SDS011;12954;50.688;10.908;2023-03-29T12:56:38;3.50;;;1.60;;
24891;SDS011;12954;50.688;10.908;2023-03-29T12:59:23;2.20;;;1.40;;
24891;SDS011;12954;50.688;10.908;2023-03-29T13:01:57;2.08;;;1.35;;
24891;SDS011;12954;50.688;10.908;2023-03-29T13:04:35;2.28;;;1.33;;
24891;SDS011;12954;50.688;10.908;2023-03-29T13:07:25;3.00;;;1.25;;
24891;SDS011;12954;50.688;10.908;2023-03-29T13:09:56;3.47;;;1.48;;
24891;SDS011;12954;50.688;10.908;2023-03-29T13:12:28;1.45;;;1.20;;
24891;SDS011;12954;50.688;10.908;2023-03-29T13:15:03;2.42;;;1.30;;
24891;SDS011;12954;50.688;10.908;2023-03-29T13:17:40;2.95;;;1.77;;
24891;SDS011;12954;50.688;10.908;2023-03-29T13:20:20;2.05;;;1.30;;
24891;SDS011;12954;50.688;10.908;2023-03-29T13:23:08;2.42;;;1.40;;
24891;SDS011;12954;50.688;10.908;2023-03-29T13:25:54;4.93;;;1.50;;
24891;SDS011;12954;50.688;10.908;2023-03-29T13:28:36;3.10;;;1.60;;
24891;SDS011;12954;50.688;10.908;2023-03-29T13:31:17;3.47;;;1.70;;
24891;SDS011;12954;50.688;10.908;2023-03-29T13:36:39;3.65;;;1.77;;
24891;SDS011;12954;50.688;10.908;2023-03-29T13:39:18;3.63;;;1.63;;
24891;SDS011;12954;50.688;10.908;2023-03-29T13:41:50;4.18;;;3.08;;
24891;SDS011;12954;50.688;10.908;2023-03-29T13:44:32;3.22;;;1.70;;
24891;SDS011;12954;50.688;10.908;2023-03-29T13:47:13;2.38;;;1.42;;
24891;SDS011;12954;50.688;10.908;2023-03-29T13:49:56;1.75;;;1.23;;
24891;SDS011;12954;50.688;10.908;2023-03-29T13:52:26;3.80;;;1.55;;
24891;SDS011;12954;50.688;10.908;2023-03-29T13:54:58;2.97;;;1.50;;
24891;SDS011;12954;50.688;10.908;2023-03-29T13:57:30;3.08;;;1.55;;
24891;SDS011;12954;50.688;10.908;2023-03-29T14:00:09;3.30;;;1.70;;
24891;SDS011;12954;50.688;10.908;2023-03-29T14:02:44;3.95;;;1.75;;
24891;SDS011;12954;50.688;10.908;2023-03-29T14:05:17;2.72;;;1.63;;
24891;SDS011;12954;50.688;10.908;2023-03-29T14:07:50;3.65;;;1.40;;
24891;SDS011;12954;50.688;10.908;2023-03-29T14:10:21;3.35;;;1.40;;
24891;SDS011;12954;50.688;10.908;2023-03-29T14:12:54;2.63;;;1.27;;
24891;SDS011;12954;50.688;10.908;2023-03-29T14:15:24;2.83;;;1.80;;
24891;SDS011;12954;50.688;10.908;2023-03-29T14:18:01;3.03;;;1.58;;
24891;SDS011;12954;50.688;10.908;2023-03-29T14:20:30;3.10;;;1.52;;
24891;SDS011;12954;50.688;10.908;2023-03-29T14:23:00;3.22;;;1.80;;
24891;SDS011;12954;50.688;10.908;2023-03-29T14:25:28;2.65;;;1.30;;
24891;SDS011;12954;50.688;10.908;2023-03-29T14:27:57;2.97;;;1.48;;
24891;SDS011;12954;50.688;10.908;2023-03-29T14:30:28;2.08;;;1.17;;
24891;SDS011;12954;50.688;10.908;2023-03-29T14:32:58;3.03;;;1.42;;
24891;SDS011;12954;50.688;10.908;2023-03-29T14:35:31;2.30;;;1.33;;
24891;SDS011;12954;50.688;10.908;2023-03-29T14:38:00;4.70;;;1.70;;
24891;SDS011;12954;50.688;10.908;2023-03-29T14:40:29;2.45;;;1.20;;
24891;SDS011;12954;50.688;10.908;2023-03-29T14:42:58;3.55;;;1.65;;
24891;SDS011;12954;50.688;10.908;2023-03-29T14:45:33;2.78;;;1.52;;
24891;SDS011;12954;50.688;10.908;2023-03-29T14:48:03;3.03;;;1.50;;
24891;SDS011;12954;50.688;10.908;2023-03-29T14:50:32;4.57;;;1.95;;
24891;SDS011;12954;50.688;10.908;2023-03-29T14:53:02;2.58;;;1.58;;
24891;SDS011;12954;50.688;10.908;2023-03-29T14:55:32;2.75;;;1.50;;
24891;SDS011;12954;50.688;10.908;2023-03-29T14:58:02;4.75;;;1.80;;
24891;SDS011;12954;50.688;10.908;2023-03-29T15:00:36;2.80;;;1.98;;
24891;SDS011;12954;50.688;10.908;2023-03-29T15:03:11;2.45;;;1.50;;
24891;SDS011;12954;50.688;10.908;2023-03-29T15:05:42;3.13;;;1.70;;
24891;SDS011;12954;50.688;10.908;2023-03-29T15:08:14;4.57;;;1.75;;
24891;SDS011;12954;50.688;10.908;2023-03-29T15:10:45;3.55;;;1.55;;
24891;SDS011;12954;50.688;10.908;2023-03-29T15:13:15;3.45;;;1.50;;
24891;SDS011;12954;50.688;10.908;2023-03-29T15:15:51;3.53;;;1.75;;